createdAt,value
2017-10-14T00:00:34.180Z,50
2017-10-14T00:01:42.265Z,50
2017-10-14T00:02:50.366Z,50
2017-10-14T00:03:58.446Z,50
2017-10-14T00:05:06.529Z,51
2017-10-14T00:06:14.614Z,51
2017-10-14T00:07:22.703Z,51
2017-10-14T00:08:30.797Z,51
2017-10-14T00:09:38.877Z,51
2017-10-14T00:10:46.963Z,51
2017-10-14T00:11:55.063Z,51
2017-10-14T00:11:55.074Z,51
2017-10-14T00:13:03.153Z,50
2017-10-14T00:14:11.236Z,50
2017-10-14T00:15:19.363Z,50
2017-10-14T00:16:27.416Z,50
2017-10-14T00:17:35.505Z,50
2017-10-14T00:18:43.591Z,50
2017-10-14T00:19:51.678Z,50
2017-10-14T00:20:59.761Z,50
2017-10-14T00:22:07.851Z,50
2017-10-14T00:23:15.938Z,50
2017-10-14T00:24:24.359Z,50
2017-10-14T00:25:32.113Z,50
2017-10-14T00:26:40.198Z,50
2017-10-14T00:27:48.285Z,50
2017-10-14T00:28:56.374Z,50
2017-10-14T00:30:04.461Z,50
2017-10-14T00:31:12.551Z,50
2017-10-14T00:32:20.635Z,50
2017-10-14T00:33:29.170Z,50
2017-10-14T00:34:36.812Z,50
2017-10-14T00:35:44.901Z,50
2017-10-14T00:36:52.985Z,50
2017-10-14T00:38:01.072Z,50
2017-10-14T00:39:09.159Z,50
2017-10-14T00:40:17.249Z,50
2017-10-14T00:41:25.336Z,50
2017-10-14T00:42:33.422Z,50
2017-10-14T00:43:41.518Z,50
2017-10-14T00:44:49.599Z,50
2017-10-14T00:45:57.685Z,50
2017-10-14T00:47:05.774Z,50
2017-10-14T00:48:13.860Z,50
2017-10-14T00:49:21.947Z,50
2017-10-14T00:50:30.035Z,50
2017-10-14T00:51:38.121Z,50
2017-10-14T00:52:46.210Z,50
2017-10-14T00:53:54.298Z,50
2017-10-14T00:55:02.387Z,50
2017-10-14T00:56:10.471Z,50
2017-10-14T00:57:18.558Z,50
2017-10-14T00:58:26.643Z,50
2017-10-14T00:59:34.733Z,50
2017-10-14T01:00:42.820Z,50
2017-10-14T01:01:50.909Z,50
2017-10-14T01:02:58.996Z,50
2017-10-14T01:04:07.102Z,50
2017-10-14T01:05:15.192Z,50
2017-10-14T01:06:23.280Z,50
2017-10-14T01:07:31.366Z,50
2017-10-14T01:08:39.452Z,49
2017-10-14T01:09:47.542Z,50
2017-10-14T01:10:55.629Z,49
2017-10-14T01:12:03.718Z,49
2017-10-14T01:13:11.802Z,49
2017-10-14T01:14:19.891Z,50
2017-10-14T01:15:27.979Z,50
2017-10-14T01:16:36.066Z,50
2017-10-14T01:17:44.154Z,50
2017-10-14T01:18:52.256Z,50
2017-10-14T01:20:01.799Z,50
2017-10-14T01:21:08.424Z,50
2017-10-14T01:22:16.507Z,50
2017-10-14T01:23:24.591Z,50
2017-10-14T01:24:32.697Z,50
2017-10-14T01:25:40.766Z,50
2017-10-14T01:26:48.856Z,50
2017-10-14T01:27:56.942Z,50
2017-10-14T01:29:05.033Z,50
2017-10-14T01:30:13.120Z,50
2017-10-14T01:31:21.205Z,50
2017-10-14T01:32:29.291Z,50
2017-10-14T01:33:37.378Z,50
2017-10-14T01:34:45.467Z,50
2017-10-14T01:35:53.562Z,50
2017-10-14T01:37:01.644Z,50
2017-10-14T01:38:09.732Z,50
2017-10-14T01:39:17.820Z,50
2017-10-14T01:40:25.908Z,49
2017-10-14T01:41:33.997Z,49
2017-10-14T01:42:42.087Z,49
2017-10-14T01:43:50.168Z,49
2017-10-14T01:44:58.256Z,49
2017-10-14T01:46:06.344Z,49
2017-10-14T01:47:14.438Z,49
2017-10-14T01:48:22.521Z,49
2017-10-14T01:49:30.608Z,49
2017-10-14T01:50:38.703Z,49
2017-10-14T01:51:46.783Z,49
2017-10-14T01:52:54.871Z,49
2017-10-14T01:54:02.959Z,49
2017-10-14T01:55:11.047Z,49
2017-10-14T01:56:19.135Z,50
2017-10-14T01:57:27.225Z,49
2017-10-14T01:58:35.311Z,49
2017-10-14T01:59:43.400Z,49
2017-10-14T02:00:51.486Z,49
2017-10-14T02:01:59.573Z,49
2017-10-14T02:03:07.670Z,49
2017-10-14T02:04:15.753Z,49
2017-10-14T02:05:23.840Z,49
2017-10-14T02:06:31.930Z,49
2017-10-14T02:07:40.017Z,49
2017-10-14T02:08:48.106Z,49
2017-10-14T02:09:56.193Z,49
2017-10-14T02:11:04.283Z,49
2017-10-14T02:12:12.367Z,49
2017-10-14T02:13:20.457Z,49
2017-10-14T02:14:28.634Z,49
2017-10-14T02:15:36.721Z,49
2017-10-14T02:16:44.811Z,49
2017-10-14T02:17:52.896Z,49
2017-10-14T02:19:00.984Z,49
2017-10-14T02:20:09.072Z,49
2017-10-14T02:21:17.158Z,49
2017-10-14T02:22:25.318Z,49
2017-10-14T02:23:33.408Z,49
2017-10-14T02:24:41.491Z,48
2017-10-14T02:25:49.582Z,49
2017-10-14T02:26:57.668Z,49
2017-10-14T02:28:05.761Z,49
2017-10-14T02:29:13.846Z,49
2017-10-14T02:30:21.939Z,49
2017-10-14T02:31:30.026Z,49
2017-10-14T02:32:38.113Z,49
2017-10-14T02:33:46.201Z,49
2017-10-14T02:34:54.291Z,48
2017-10-14T02:36:02.376Z,49
2017-10-14T02:37:10.465Z,48
2017-10-14T02:38:18.561Z,48
2017-10-14T02:39:26.647Z,48
2017-10-14T02:40:34.738Z,49
2017-10-14T02:41:42.824Z,49
2017-10-14T02:42:50.910Z,48
2017-10-14T02:43:58.999Z,49
2017-10-14T02:45:07.107Z,48
2017-10-14T02:46:15.196Z,49
2017-10-14T02:47:23.285Z,49
2017-10-14T02:48:31.373Z,48
2017-10-14T02:49:39.461Z,49
2017-10-14T02:50:47.551Z,49
2017-10-14T02:51:55.646Z,48
2017-10-14T02:53:03.737Z,48
2017-10-14T02:54:11.849Z,48
2017-10-14T02:55:19.915Z,48
2017-10-14T02:56:28.000Z,48
2017-10-14T02:57:36.085Z,48
2017-10-14T02:58:44.176Z,48
2017-10-14T02:59:52.263Z,48
2017-10-14T03:01:00.356Z,48
2017-10-14T03:02:08.444Z,48
2017-10-14T03:03:16.531Z,48
2017-10-14T03:04:24.620Z,48
2017-10-14T03:05:32.710Z,48
2017-10-14T03:06:40.796Z,48
2017-10-14T03:07:48.884Z,48
2017-10-14T03:08:56.972Z,48
2017-10-14T03:10:05.061Z,48
2017-10-14T03:11:13.147Z,48
2017-10-14T03:12:21.234Z,48
2017-10-14T03:13:29.323Z,48
2017-10-14T03:14:37.411Z,48
2017-10-14T03:15:45.499Z,48
2017-10-14T03:16:53.586Z,48
2017-10-14T03:18:01.676Z,48
2017-10-14T03:19:09.763Z,48
2017-10-14T03:20:17.849Z,48
2017-10-14T03:21:25.935Z,48
2017-10-14T03:22:34.022Z,48
2017-10-14T03:23:42.111Z,48
2017-10-14T03:24:50.331Z,48
2017-10-14T03:25:58.432Z,48
2017-10-14T03:27:06.510Z,48
2017-10-14T03:28:14.594Z,48
2017-10-14T03:29:22.681Z,48
2017-10-14T03:30:30.780Z,48
2017-10-14T03:31:38.858Z,48
2017-10-14T03:32:46.955Z,48
2017-10-14T03:33:55.034Z,48
2017-10-14T03:35:03.123Z,48
2017-10-14T03:36:11.210Z,48
2017-10-14T03:37:19.302Z,48
2017-10-14T03:38:27.388Z,48
2017-10-14T03:39:35.474Z,48
2017-10-14T03:40:43.559Z,48
2017-10-14T03:41:51.650Z,48
2017-10-14T03:42:59.737Z,48
2017-10-14T03:44:07.825Z,48
2017-10-14T03:45:15.912Z,48
2017-10-14T03:46:24.001Z,48
2017-10-14T03:47:32.089Z,48
2017-10-14T03:48:40.174Z,48
2017-10-14T03:49:48.261Z,48
2017-10-14T03:50:56.349Z,48
2017-10-14T03:52:04.454Z,48
2017-10-14T03:53:12.538Z,48
2017-10-14T03:54:20.625Z,48
2017-10-14T03:55:28.716Z,48
2017-10-14T03:56:36.803Z,48
2017-10-14T03:57:44.889Z,48
2017-10-14T03:58:52.976Z,48
2017-10-14T04:00:01.317Z,48
2017-10-14T04:01:09.230Z,48
2017-10-14T04:02:17.326Z,48
2017-10-14T04:03:25.418Z,48
2017-10-14T04:04:33.532Z,48
2017-10-14T04:05:41.592Z,48
2017-10-14T04:06:49.708Z,48
2017-10-14T04:07:57.796Z,48
2017-10-14T04:09:05.883Z,48
2017-10-14T04:10:13.970Z,48
2017-10-14T04:11:22.066Z,48
2017-10-14T04:12:30.164Z,48
2017-10-14T04:13:38.257Z,48
2017-10-14T04:14:46.341Z,48
2017-10-14T04:15:54.434Z,48
2017-10-14T04:17:02.513Z,48
2017-10-14T04:18:10.602Z,48
2017-10-14T04:19:18.690Z,48
2017-10-14T04:20:26.781Z,48
2017-10-14T04:21:34.868Z,48
2017-10-14T04:22:42.957Z,48
2017-10-14T04:23:51.042Z,48
2017-10-14T04:24:59.223Z,48
2017-10-14T04:26:07.314Z,48
2017-10-14T04:27:15.403Z,48
2017-10-14T04:28:23.984Z,48
2017-10-14T04:29:31.578Z,48
2017-10-14T04:30:39.667Z,48
2017-10-14T04:31:47.769Z,48
2017-10-14T04:32:55.841Z,48
2017-10-14T04:34:03.928Z,48
2017-10-14T04:35:12.028Z,48
2017-10-14T04:36:20.116Z,48
2017-10-14T04:37:28.192Z,48
2017-10-14T04:38:36.583Z,48
2017-10-14T04:39:44.702Z,48
2017-10-14T04:40:52.790Z,48
2017-10-14T04:42:00.878Z,48
2017-10-14T04:43:09.182Z,48
2017-10-14T04:44:17.426Z,48
2017-10-14T04:45:25.515Z,48
2017-10-14T04:46:33.601Z,48
2017-10-14T04:47:41.689Z,48
2017-10-14T04:48:50.005Z,48
2017-10-14T04:49:58.099Z,48
2017-10-14T04:51:05.952Z,48
2017-10-14T04:52:14.104Z,48
2017-10-14T04:53:22.129Z,48
2017-10-14T04:54:30.235Z,48
2017-10-14T04:55:38.305Z,48
2017-10-14T04:56:46.961Z,48
2017-10-14T04:57:54.486Z,48
2017-10-14T04:59:02.790Z,48
2017-10-14T05:00:10.941Z,48
2017-10-14T05:01:18.754Z,48
2017-10-14T05:02:26.835Z,48
2017-10-14T05:03:34.929Z,48
2017-10-14T05:04:43.012Z,48
2017-10-14T05:05:51.100Z,48
2017-10-14T05:06:59.192Z,48
2017-10-14T05:08:07.516Z,48
2017-10-14T05:09:15.362Z,48
2017-10-14T05:10:23.451Z,48
2017-10-14T05:11:31.980Z,48
2017-10-14T05:12:39.684Z,48
2017-10-14T05:13:47.732Z,48
2017-10-14T05:14:55.920Z,48
2017-10-14T05:16:03.906Z,48
2017-10-14T05:17:11.975Z,48
2017-10-14T05:18:20.088Z,48
2017-10-14T05:19:28.157Z,48
2017-10-14T05:20:36.262Z,48
2017-10-14T05:21:44.333Z,48
2017-10-14T05:22:52.440Z,48
2017-10-14T05:24:00.507Z,48
2017-10-14T05:25:08.635Z,48
2017-10-14T05:26:16.682Z,48
2017-10-14T05:27:24.771Z,48
2017-10-14T05:28:32.858Z,48
2017-10-14T05:29:41.037Z,48
2017-10-14T05:30:49.617Z,48
2017-10-14T05:31:57.120Z,48
2017-10-14T05:33:05.209Z,48
2017-10-14T05:34:13.584Z,48
2017-10-14T05:35:21.396Z,48
2017-10-14T05:36:29.490Z,48
2017-10-14T05:37:37.589Z,48
2017-10-14T05:38:45.664Z,48
2017-10-14T05:39:53.751Z,48
2017-10-14T05:41:01.840Z,48
2017-10-14T05:42:09.924Z,48
2017-10-14T05:43:18.021Z,48
2017-10-14T05:44:26.101Z,48
2017-10-14T05:45:34.189Z,48
2017-10-14T05:46:42.276Z,48
2017-10-14T05:47:50.364Z,48
2017-10-14T05:48:58.451Z,48
2017-10-14T05:50:06.537Z,48
2017-10-14T05:51:14.624Z,48
2017-10-14T05:52:22.713Z,48
2017-10-14T05:53:30.870Z,48
2017-10-14T05:54:38.889Z,48
2017-10-14T05:55:47.001Z,48
2017-10-14T05:56:55.204Z,48
2017-10-14T05:58:03.150Z,48
2017-10-14T05:59:11.247Z,48
2017-10-14T06:00:19.335Z,48
2017-10-14T06:01:27.417Z,48
2017-10-14T06:02:35.512Z,48
2017-10-14T06:03:43.592Z,48
2017-10-14T06:04:51.678Z,48
2017-10-14T06:05:59.855Z,48
2017-10-14T06:07:07.854Z,48
2017-10-14T06:08:15.941Z,48
2017-10-14T06:09:24.028Z,48
2017-10-14T06:10:32.117Z,48
2017-10-14T06:11:40.201Z,48
2017-10-14T06:12:48.416Z,48
2017-10-14T06:13:56.376Z,48
2017-10-14T06:15:04.582Z,48
2017-10-14T06:16:12.550Z,48
2017-10-14T06:17:20.966Z,48
2017-10-14T06:18:28.724Z,48
2017-10-14T06:19:36.816Z,48
2017-10-14T06:20:44.930Z,48
2017-10-14T06:21:52.993Z,48
2017-10-14T06:23:01.073Z,48
2017-10-14T06:24:09.165Z,48
2017-10-14T06:25:17.249Z,48
2017-10-14T06:26:25.336Z,48
2017-10-14T06:27:33.422Z,48
2017-10-14T06:28:41.509Z,48
2017-10-14T06:29:49.598Z,48
2017-10-14T06:30:57.683Z,48
2017-10-14T06:32:05.771Z,48
2017-10-14T06:33:13.861Z,48
2017-10-14T06:34:21.945Z,48
2017-10-14T06:35:30.071Z,48
2017-10-14T06:36:38.123Z,48
2017-10-14T06:37:46.208Z,48
2017-10-14T06:38:54.295Z,48
2017-10-14T06:40:02.383Z,48
2017-10-14T06:41:10.468Z,48
2017-10-14T06:42:18.558Z,48
2017-10-14T06:43:26.897Z,48
2017-10-14T06:44:34.730Z,48
2017-10-14T06:45:42.833Z,48
2017-10-14T06:46:50.907Z,48
2017-10-14T06:47:58.991Z,48
2017-10-14T06:49:07.078Z,48
2017-10-14T06:50:15.166Z,48
2017-10-14T06:51:23.258Z,49
2017-10-14T06:52:31.347Z,48
2017-10-14T06:53:39.464Z,49
2017-10-14T06:54:48.068Z,49
2017-10-14T06:55:55.602Z,49
2017-10-14T06:57:03.693Z,49
2017-10-14T06:58:11.780Z,49
2017-10-14T06:59:19.869Z,49
2017-10-14T07:00:28.186Z,49
2017-10-14T07:01:36.043Z,49
2017-10-14T07:02:44.140Z,49
2017-10-14T07:03:52.222Z,49
2017-10-14T07:05:00.357Z,49
2017-10-14T07:06:08.413Z,49
2017-10-14T07:07:16.488Z,49
2017-10-14T07:08:25.237Z,49
2017-10-14T07:09:32.661Z,49
2017-10-14T07:10:40.790Z,49
2017-10-14T07:11:49.483Z,49
2017-10-14T07:12:57.083Z,49
2017-10-14T07:14:05.020Z,49
2017-10-14T07:15:13.834Z,49
2017-10-14T07:16:21.195Z,49
2017-10-14T07:17:29.886Z,49
2017-10-14T07:18:37.368Z,49
2017-10-14T07:19:46.038Z,49
2017-10-14T07:20:53.851Z,49
2017-10-14T07:22:01.662Z,49
2017-10-14T07:23:09.715Z,49
2017-10-14T07:24:17.800Z,49
2017-10-14T07:25:25.889Z,49
2017-10-14T07:26:33.977Z,49
2017-10-14T07:27:42.065Z,49
2017-10-14T07:28:50.297Z,49
2017-10-14T07:29:58.238Z,49
2017-10-14T07:31:06.328Z,49
2017-10-14T07:32:14.425Z,49
2017-10-14T07:33:22.995Z,49
2017-10-14T07:34:30.717Z,49
2017-10-14T07:35:38.798Z,49
2017-10-14T07:36:46.773Z,49
2017-10-14T07:37:55.218Z,49
2017-10-14T07:39:02.948Z,48
2017-10-14T07:40:11.034Z,48
2017-10-14T07:41:19.241Z,48
2017-10-14T07:42:27.346Z,48
2017-10-14T07:43:35.296Z,48
2017-10-14T07:44:43.762Z,47
2017-10-14T07:45:51.469Z,47
2017-10-14T07:47:00.184Z,48
2017-10-14T07:48:07.642Z,47
2017-10-14T07:49:15.730Z,47
2017-10-14T07:50:23.818Z,47
2017-10-14T07:51:32.302Z,47
2017-10-14T07:52:40.277Z,47
2017-10-14T07:53:48.081Z,47
2017-10-14T07:54:56.167Z,47
2017-10-14T07:56:04.263Z,47
2017-10-14T07:57:12.339Z,48
2017-10-14T07:58:20.426Z,48
2017-10-14T07:59:28.516Z,47
2017-10-14T08:00:36.611Z,48
2017-10-14T08:01:44.692Z,48
2017-10-14T08:02:52.778Z,48
2017-10-14T08:04:00.865Z,48
2017-10-14T08:05:08.951Z,48
2017-10-14T08:06:17.047Z,48
2017-10-14T08:07:25.121Z,48
2017-10-14T08:08:33.210Z,48
2017-10-14T08:09:41.355Z,48
2017-10-14T08:10:49.437Z,48
2017-10-14T08:11:57.526Z,48
2017-10-14T08:13:05.616Z,49
2017-10-14T08:14:13.702Z,49
2017-10-14T08:15:21.798Z,49
2017-10-14T08:16:29.879Z,49
2017-10-14T08:17:37.957Z,49
2017-10-14T08:18:46.049Z,50
2017-10-14T08:19:54.135Z,49
2017-10-14T08:21:02.216Z,50
2017-10-14T08:22:10.302Z,50
2017-10-14T08:23:18.389Z,50
2017-10-14T08:24:26.477Z,50
2017-10-14T08:25:34.580Z,50
2017-10-14T08:26:42.649Z,50
2017-10-14T08:27:50.885Z,50
2017-10-14T08:28:58.832Z,50
2017-10-14T08:30:06.924Z,50
2017-10-14T08:31:15.005Z,50
2017-10-14T08:32:23.092Z,50
2017-10-14T08:33:31.187Z,51
2017-10-14T08:34:39.273Z,51
2017-10-14T08:35:47.360Z,50
2017-10-14T08:36:55.446Z,50
2017-10-14T08:38:03.543Z,51
2017-10-14T08:39:11.629Z,50
2017-10-14T08:40:19.713Z,50
2017-10-14T08:41:27.832Z,50
2017-10-14T08:42:35.898Z,51
2017-10-14T08:43:43.975Z,51
2017-10-14T08:44:52.063Z,51
2017-10-14T08:46:00.164Z,51
2017-10-14T08:47:08.325Z,51
2017-10-14T08:48:16.328Z,50
2017-10-14T08:49:24.408Z,51
2017-10-14T08:50:32.496Z,51
2017-10-14T08:51:40.580Z,51
2017-10-14T08:52:48.668Z,50
2017-10-14T08:53:56.756Z,51
2017-10-14T08:55:04.844Z,51
2017-10-14T08:56:12.936Z,51
2017-10-14T08:57:21.018Z,51
2017-10-14T08:58:29.104Z,51
2017-10-14T08:59:37.197Z,51
2017-10-14T09:00:45.277Z,51
2017-10-14T09:01:53.362Z,51
2017-10-14T09:03:01.449Z,51
2017-10-14T09:04:09.535Z,52
2017-10-14T09:05:17.633Z,51
2017-10-14T09:06:25.717Z,52
2017-10-14T09:07:33.798Z,51
2017-10-14T09:08:41.935Z,52
2017-10-14T09:09:49.970Z,52
2017-10-14T09:10:58.056Z,51
2017-10-14T09:12:06.144Z,51
2017-10-14T09:13:14.228Z,51
2017-10-14T09:14:22.317Z,51
2017-10-14T09:15:30.403Z,51
2017-10-14T09:16:38.487Z,51
2017-10-14T09:17:46.574Z,51
2017-10-14T09:18:54.663Z,51
2017-10-14T09:20:02.746Z,51
2017-10-14T09:21:10.833Z,51
2017-10-14T09:22:18.922Z,51
2017-10-14T09:23:27.007Z,51
2017-10-14T09:24:35.093Z,51
2017-10-14T09:25:43.184Z,51
2017-10-14T09:26:51.268Z,51
2017-10-14T09:27:59.353Z,51
2017-10-14T09:29:07.437Z,51
2017-10-14T09:30:15.525Z,52
2017-10-14T09:31:23.611Z,52
2017-10-14T09:32:31.705Z,52
2017-10-14T09:33:39.794Z,52
2017-10-14T09:34:47.885Z,53
2017-10-14T09:35:55.965Z,53
2017-10-14T09:37:04.059Z,53
2017-10-14T09:38:12.136Z,53
2017-10-14T09:39:20.223Z,53
2017-10-14T09:40:28.311Z,54
2017-10-14T09:41:36.403Z,54
2017-10-14T09:42:44.500Z,54
2017-10-14T09:43:52.585Z,54
2017-10-14T09:45:00.676Z,55
2017-10-14T09:46:08.757Z,54
2017-10-14T09:47:16.844Z,55
2017-10-14T09:48:24.931Z,55
2017-10-14T09:49:33.027Z,55
2017-10-14T09:50:41.105Z,55
2017-10-14T09:51:49.193Z,55
2017-10-14T09:52:57.286Z,55
2017-10-14T09:54:05.374Z,55
2017-10-14T09:55:13.467Z,55
2017-10-14T09:56:21.555Z,55
2017-10-14T09:57:29.710Z,56
2017-10-14T09:58:37.796Z,56
2017-10-14T09:59:45.884Z,55
2017-10-14T10:00:53.967Z,55
2017-10-14T10:02:02.054Z,55
2017-10-14T10:03:10.140Z,55
2017-10-14T10:04:18.228Z,56
2017-10-14T10:05:26.313Z,56
2017-10-14T10:06:34.399Z,55
2017-10-14T10:07:42.485Z,56
2017-10-14T10:08:50.578Z,56
2017-10-14T10:09:58.886Z,55
2017-10-14T10:11:06.974Z,55
2017-10-14T10:12:15.069Z,55
2017-10-14T10:13:23.146Z,55
2017-10-14T10:14:31.232Z,55
2017-10-14T10:15:39.901Z,55
2017-10-14T10:16:47.404Z,55
2017-10-14T10:17:55.490Z,55
2017-10-14T10:19:03.581Z,55
2017-10-14T10:20:11.667Z,55
2017-10-14T10:21:19.761Z,55
2017-10-14T10:22:27.837Z,55
2017-10-14T10:23:35.931Z,55
2017-10-14T10:24:44.011Z,55
2017-10-14T10:25:52.097Z,55
2017-10-14T10:27:00.182Z,55
2017-10-14T10:28:08.267Z,55
2017-10-14T10:29:16.355Z,55
2017-10-14T10:30:24.440Z,55
2017-10-14T10:31:32.531Z,56
2017-10-14T10:32:40.618Z,56
2017-10-14T10:33:48.701Z,56
2017-10-14T10:34:56.787Z,56
2017-10-14T10:36:04.879Z,55
2017-10-14T10:37:12.957Z,55
2017-10-14T10:38:21.048Z,56
2017-10-14T10:39:29.138Z,55
2017-10-14T10:40:37.219Z,56
2017-10-14T10:41:45.305Z,56
2017-10-14T10:42:53.395Z,56
2017-10-14T10:44:01.487Z,56
2017-10-14T10:45:09.570Z,56
2017-10-14T10:46:17.666Z,56
2017-10-14T10:47:25.758Z,56
2017-10-14T10:48:33.844Z,55
2017-10-14T10:49:41.950Z,56
2017-10-14T10:50:50.024Z,56
2017-10-14T10:51:58.113Z,56
2017-10-14T10:53:06.201Z,56
2017-10-14T10:54:14.288Z,57
2017-10-14T10:55:22.376Z,57
2017-10-14T10:56:30.467Z,57
2017-10-14T10:57:38.551Z,57
2017-10-14T10:58:46.636Z,56
2017-10-14T10:59:54.721Z,56
2017-10-14T11:01:02.806Z,56
2017-10-14T11:02:10.948Z,56
2017-10-14T11:03:19.035Z,56
2017-10-14T11:04:27.121Z,57
2017-10-14T11:05:35.208Z,57
2017-10-14T11:06:43.292Z,56
2017-10-14T11:07:51.381Z,56
2017-10-14T11:08:59.466Z,57
2017-10-14T11:10:07.554Z,56
2017-10-14T11:11:15.639Z,56
2017-10-14T11:12:23.727Z,57
2017-10-14T11:13:31.814Z,56
2017-10-14T11:14:39.908Z,56
2017-10-14T11:15:47.986Z,57
2017-10-14T11:16:56.075Z,57
2017-10-14T11:18:04.155Z,57
2017-10-14T11:19:12.244Z,57
2017-10-14T11:20:20.332Z,57
2017-10-14T11:21:28.427Z,57
2017-10-14T11:22:36.508Z,57
2017-10-14T11:23:44.588Z,57
2017-10-14T11:24:52.675Z,57
2017-10-14T11:26:00.759Z,57
2017-10-14T11:27:08.846Z,57
2017-10-14T11:28:16.930Z,57
2017-10-14T11:29:25.018Z,57
2017-10-14T11:30:33.106Z,57
2017-10-14T11:31:41.195Z,57
2017-10-14T11:32:49.277Z,57
2017-10-14T11:33:57.364Z,57
2017-10-14T11:35:05.450Z,57
2017-10-14T11:36:13.536Z,58
2017-10-14T11:37:21.639Z,58
2017-10-14T11:38:29.712Z,58
2017-10-14T11:39:37.806Z,58
2017-10-14T11:40:45.881Z,58
2017-10-14T11:41:53.966Z,58
2017-10-14T11:43:02.053Z,58
2017-10-14T11:44:10.139Z,57
2017-10-14T11:45:18.225Z,58
2017-10-14T11:46:26.311Z,58
2017-10-14T11:47:34.395Z,57
2017-10-14T11:48:42.484Z,57
2017-10-14T11:49:50.568Z,57
2017-10-14T11:50:58.667Z,57
2017-10-14T11:52:06.755Z,57
2017-10-14T11:53:14.847Z,58
2017-10-14T11:54:23.696Z,58
2017-10-14T11:55:31.020Z,58
2017-10-14T11:56:39.116Z,58
2017-10-14T11:57:47.195Z,58
2017-10-14T11:58:55.278Z,58
2017-10-14T12:00:03.366Z,58
2017-10-14T12:01:11.449Z,57
2017-10-14T12:02:19.546Z,58
2017-10-14T12:03:27.630Z,58
2017-10-14T12:04:35.714Z,57
2017-10-14T12:05:43.800Z,57
2017-10-14T12:06:51.885Z,57
2017-10-14T12:07:59.976Z,57
2017-10-14T12:09:08.066Z,57
2017-10-14T12:10:16.152Z,57
2017-10-14T12:11:24.238Z,56
2017-10-14T12:12:32.322Z,55
2017-10-14T12:13:40.419Z,55
2017-10-14T12:14:48.501Z,55
2017-10-14T12:15:56.585Z,55
2017-10-14T12:17:04.669Z,55
2017-10-14T12:18:12.759Z,55
2017-10-14T12:19:20.843Z,55
2017-10-14T12:20:28.930Z,55
2017-10-14T12:21:37.016Z,56
2017-10-14T12:22:45.102Z,55
2017-10-14T12:23:53.193Z,56
2017-10-14T12:25:01.318Z,56
2017-10-14T12:26:09.356Z,56
2017-10-14T12:27:17.443Z,56
2017-10-14T12:28:25.538Z,56
2017-10-14T12:29:33.623Z,56
2017-10-14T12:30:41.714Z,56
2017-10-14T12:31:49.796Z,56
2017-10-14T12:32:57.886Z,56
2017-10-14T12:34:05.969Z,56
2017-10-14T12:35:14.056Z,56
2017-10-14T12:36:22.142Z,56
2017-10-14T12:37:30.228Z,56
2017-10-14T12:38:38.314Z,56
2017-10-14T12:39:46.401Z,56
2017-10-14T12:40:54.486Z,56
2017-10-14T12:42:02.572Z,56
2017-10-14T12:43:10.657Z,56
2017-10-14T12:44:18.813Z,56
2017-10-14T12:45:26.834Z,56
2017-10-14T12:46:34.913Z,56
2017-10-14T12:47:43.010Z,56
2017-10-14T12:48:51.088Z,56
2017-10-14T12:49:59.174Z,56
2017-10-14T12:51:07.261Z,56
2017-10-14T12:52:15.356Z,56
2017-10-14T12:53:23.430Z,56
2017-10-14T12:54:31.516Z,56
2017-10-14T12:55:39.603Z,56
2017-10-14T12:56:47.687Z,56
2017-10-14T12:57:55.774Z,56
2017-10-14T12:59:03.876Z,56
2017-10-14T13:00:11.948Z,56
2017-10-14T13:01:20.030Z,56
2017-10-14T13:02:28.117Z,56
2017-10-14T13:03:36.201Z,56
2017-10-14T13:04:44.288Z,56
2017-10-14T13:05:52.374Z,56
2017-10-14T13:07:00.461Z,55
2017-10-14T13:08:08.545Z,56
2017-10-14T13:09:16.640Z,56
2017-10-14T13:10:24.738Z,55
2017-10-14T13:11:32.804Z,56
2017-10-14T13:12:40.895Z,56
2017-10-14T13:13:48.979Z,56
2017-10-14T13:14:57.063Z,56
2017-10-14T13:16:05.146Z,56
2017-10-14T13:17:13.233Z,56
2017-10-14T13:18:21.316Z,56
2017-10-14T13:19:29.404Z,56
2017-10-14T13:20:37.490Z,56
2017-10-14T13:21:45.576Z,56
2017-10-14T13:22:53.664Z,56
2017-10-14T13:24:01.752Z,56
2017-10-14T13:25:09.840Z,56
2017-10-14T13:26:17.918Z,55
2017-10-14T13:27:26.005Z,55
2017-10-14T13:28:34.093Z,55
2017-10-14T13:29:42.178Z,55
2017-10-14T13:30:50.264Z,55
2017-10-14T13:31:58.350Z,55
2017-10-14T13:33:06.439Z,55
2017-10-14T13:34:14.524Z,54
2017-10-14T13:35:22.608Z,55
2017-10-14T13:36:30.692Z,55
2017-10-14T13:37:38.794Z,55
2017-10-14T13:38:46.878Z,54
2017-10-14T13:39:54.964Z,54
2017-10-14T13:41:03.050Z,54
2017-10-14T13:42:11.133Z,54
2017-10-14T13:43:19.220Z,54
2017-10-14T13:44:27.305Z,53
2017-10-14T13:45:35.393Z,53
2017-10-14T13:46:43.478Z,54
2017-10-14T13:47:51.567Z,54
2017-10-14T13:48:59.650Z,54
2017-10-14T13:50:07.735Z,54
2017-10-14T13:51:15.826Z,53
2017-10-14T13:52:23.911Z,53
2017-10-14T13:53:31.994Z,53
2017-10-14T13:54:40.078Z,53
2017-10-14T13:55:48.165Z,53
2017-10-14T13:56:56.257Z,53
2017-10-14T13:58:04.349Z,53
2017-10-14T13:59:12.424Z,53
2017-10-14T14:00:20.514Z,54
2017-10-14T14:01:28.604Z,54
2017-10-14T14:02:36.701Z,54
2017-10-14T14:03:44.796Z,54
2017-10-14T14:04:52.890Z,54
2017-10-14T14:06:00.972Z,54
2017-10-14T14:07:09.070Z,54
2017-10-14T14:08:17.155Z,54
2017-10-14T14:09:25.252Z,53
2017-10-14T14:10:33.341Z,53
2017-10-14T14:11:41.427Z,53
2017-10-14T14:12:49.512Z,53
2017-10-14T14:13:57.599Z,53
2017-10-14T14:15:05.775Z,53
2017-10-14T14:16:13.771Z,54
2017-10-14T14:17:21.864Z,54
2017-10-14T14:18:29.950Z,53
2017-10-14T14:19:38.037Z,54
2017-10-14T14:20:46.122Z,54
2017-10-14T14:21:54.215Z,53
2017-10-14T14:23:02.303Z,53
2017-10-14T14:24:10.389Z,53
2017-10-14T14:25:18.481Z,54
2017-10-14T14:26:26.560Z,54
2017-10-14T14:27:34.670Z,54
2017-10-14T14:28:42.746Z,53
2017-10-14T14:29:50.828Z,53
2017-10-14T14:30:58.918Z,53
2017-10-14T14:32:07.002Z,53
2017-10-14T14:33:15.086Z,53
2017-10-14T14:34:23.174Z,53
2017-10-14T14:35:31.264Z,53
2017-10-14T14:36:39.346Z,53
2017-10-14T14:37:47.434Z,53
2017-10-14T14:38:55.518Z,53
2017-10-14T14:40:03.606Z,53
2017-10-14T14:41:11.690Z,54
2017-10-14T14:42:19.777Z,54
2017-10-14T14:43:27.878Z,54
2017-10-14T14:44:35.949Z,54
2017-10-14T14:45:44.033Z,54
2017-10-14T14:46:52.122Z,54
2017-10-14T14:48:00.209Z,54
2017-10-14T14:49:08.301Z,54
2017-10-14T14:50:16.385Z,54
2017-10-14T14:51:24.477Z,54
2017-10-14T14:52:32.562Z,54
2017-10-14T14:53:40.649Z,54
2017-10-14T14:54:48.750Z,54
2017-10-14T14:55:56.834Z,54
2017-10-14T14:57:04.922Z,54
2017-10-14T14:58:13.024Z,54
2017-10-14T14:59:21.110Z,54
2017-10-14T15:00:29.217Z,54
2017-10-14T15:01:37.292Z,54
2017-10-14T15:02:45.385Z,54
2017-10-14T15:03:53.468Z,54
2017-10-14T15:05:01.551Z,54
2017-10-14T15:06:09.641Z,54
2017-10-14T15:07:17.729Z,54
2017-10-14T15:08:25.816Z,54
2017-10-14T15:09:33.898Z,54
2017-10-14T15:10:41.986Z,54
2017-10-14T15:11:50.071Z,54
2017-10-14T15:12:58.161Z,54
2017-10-14T15:14:06.246Z,54
2017-10-14T15:15:14.332Z,54
2017-10-14T15:16:22.424Z,54
2017-10-14T15:17:30.506Z,54
2017-10-14T15:18:38.592Z,54
2017-10-14T15:19:46.679Z,54
2017-10-14T15:20:54.811Z,53
2017-10-14T15:22:02.851Z,54
2017-10-14T15:23:10.941Z,53
2017-10-14T15:24:19.029Z,53
2017-10-14T15:25:27.110Z,53
2017-10-14T15:26:35.198Z,53
2017-10-14T15:27:43.284Z,53
2017-10-14T15:28:51.371Z,53
2017-10-14T15:29:59.463Z,53
2017-10-14T15:31:07.543Z,53
2017-10-14T15:32:15.626Z,54
2017-10-14T15:33:23.715Z,53
2017-10-14T15:34:31.801Z,53
2017-10-14T15:35:39.886Z,53
2017-10-14T15:36:47.974Z,54
2017-10-14T15:37:56.061Z,53
2017-10-14T15:39:04.153Z,54
2017-10-14T15:40:12.247Z,53
2017-10-14T15:41:20.333Z,54
2017-10-14T15:42:28.418Z,53
2017-10-14T15:43:36.506Z,54
2017-10-14T15:44:44.592Z,53
2017-10-14T15:45:52.677Z,53
2017-10-14T15:47:00.763Z,53
2017-10-14T15:48:08.850Z,53
2017-10-14T15:49:16.933Z,53
2017-10-14T15:50:25.022Z,54
2017-10-14T15:51:33.115Z,53
2017-10-14T15:52:41.202Z,54
2017-10-14T15:53:49.503Z,53
2017-10-14T15:54:57.590Z,53
2017-10-14T15:56:05.677Z,53
2017-10-14T15:57:13.760Z,54
2017-10-14T15:58:21.849Z,54
2017-10-14T15:59:29.940Z,54
2017-10-14T16:00:38.021Z,53
2017-10-14T16:01:46.133Z,53
2017-10-14T16:02:54.218Z,53
2017-10-14T16:04:02.305Z,53
2017-10-14T16:05:10.392Z,54
2017-10-14T16:06:18.479Z,53
2017-10-14T16:07:26.566Z,53
2017-10-14T16:08:34.661Z,53
2017-10-14T16:09:42.749Z,53